Scroll down
FLIGHT INFORMATION
Southern Air

SOO2201

At Arrival Gate

GOOY
 LXGB
DATE: 2020-09-11
GATE: 7
GATE DEPARTURE: 14:07
TAKEOFF: 14:12
DATE: 2020-09-11
GATE:  -
LANDING: 17:46
GATE ARRIVAL: 17:51
FLIGHT DATA
Speed: 
496 kts
Altitude: 
33,024 ft
Stage Length: 
1,440.6 nm
Block Time: 
3.7 hrs
Flight Time: 
3.6 hrs
Fuel Used: 
24,722 lb
Cleared Route: GOOY 2410N BULIS DIVUX TOPMA MAK TNG LXGB
TRACK DATA
50,000 ft 1,000 kts
AIRCRAFT INFO AND CUMULATIVE STATS
Aircraft Type: 
B738BCF
Registration: 
SELCAL: 
MSN/LN: 
32884 / 1181
Operator: 
Total Flights: 
7
Total Block Time: 
26 hrs
Total Flight Time: 
25.6 hrs
Total Fuel Time: 
122,027 lb
DATALINK LOG | Newest first | Current as of: 2020-11-29 02:18:05
LABEL SEQUENCE CONTENT Dn/Up
QD544417:51 17.2▼ Dn
QC494017:46▼ Dn
GA0164ADVANCED GATE ASSIGNMENTS NOT YET AVAILABLE AT THIS AIRPORT▲ Up
GR0154LXGB 17:35 MAAS YP/UM WCHR/S/C HI-VAL NO DIPL/VIP NO▼ Dn
2U5847LXGB 111620Z 09006KT 9999 FEW006 BKN200 24/21 Q1013 NOSIG RMK BLU BLU▲ Up
2S0053LXGB▼ Dn
UM0 UM195866UNABLE. MAINTAIN ASSIGNED ALTITUDE▲ Up
DM65856REQUEST FL 350 DUE TO A/C PERF▼ Dn
UM0 UM195361UNABLE. MAINTAIN ASSIGNED ALTITUDE▲ Up
DM65351REQUEST FL 350 DUE TO A/C PERF▼ Dn
2U2057LXGB 111450Z 09008KT 9999 FEW011 BKN200 24/21 Q1013 NOSIG RMK BLU BLU▲ Up
2S2220LXGB▼ Dn
QB151614:12▼ Dn
QA091014:07 41.8▼ Dn
A35506CLEARED TO LXGB VIA 2410N BULIS UM372 MAK TNG. SQUAWK .▲ Up
B35456GOOY LXGB 9S2201 A ▼ Dn
Q05052[LINK ACK]▲ Up
Q05052[LINK TEST]▼ Dn


AIRCRAFT HISTORY
FLIGHT DATE FLIGHT NO. ORIGIN DESTINATION CLEARED ROUTE BLOCK TIME FLIGHT TIME FUEL USED PILOT
2020-10-22SOO9S2201LEMD EGKK LEMD SIE EDIGO DGO BLV MAPAX NENEM PEXOD DESAB TEPRA NORMI MOKOR TERPO GODAN REN UPALO REVTU ODREP GOKTU VASUX EGKK2 hrs1.7 hrs9,208 lbRoberto Stopnicki
2020-10-19SOO2201LXGB LEMD LXGB PIMOS MGA BLN MORAL LEMD1.7 hrs1.4 hrs10,465 lbRoberto Stopnicki
2020-09-11SOO2201GOOY LXGB GOOY 2410N BULIS DIVUX TOPMA MAK TNG LXGB3.7 hrs3.6 hrs24,722 lbRoberto Stopnicki
2020-09-08SOO2201SBRF GOOY SBRF MOVLA AMBET VURBI MOXIP BUGAT REGIS ARUNU BUTAP KODOS TAROT INIRO BOMSA DS GATRO RW014.6 hrs4.4 hrs30,200 lbRoberto Stopnicki
2020-09-06SOO2201SAEZ SBRF SAEZ DORVO PABOT LOMID ANRUP MLO OGRUN DEVOT ABELA OPROR NELOX ITBEB TIMVI UTMUD EGBIP UGREV DOKPU EKUBI EGDED ANDEB EVPIB DOKRO FEITO AKNUB VUDAV BITAK NISBO KOVGO MIA VUPIP SEGLI MOLSU UKENU DOGSU SASBU OPLOX SATBU DAGEL XUVUD SGR BIDEV NAXOV IRUMI ESLIB MEDIT RUBEN SBRF4.8 hrs4.6 hrs26,676 lbRoberto Stopnicki
2020-09-02SOO2201SEQM SAEZ SEQM VURIS PAV VUKOK PUL URC ILMOX JUL ARSUN UBSAS USTOT NAXET JUJ ASODO VADUN GAVEX ESPER DADMI ERE ROMUR ISOPO SNT SAEZ5.4 hrs5.1 hrs32,535 lbRoberto Stopnicki
2020-08-09SOO2311KIAH SEQM KIAH TTAPS BOTLL FLYZA PPALE VUH KELPP KEHLI SUVUM LEVAT RORLA ITLOM IGTOB MUXOG AXEVU VIGTU VOBED CZM ITAKU SIGMA AMESI TEKUG SPP MORLI TBG MILAT TOKUT TCO ENSOL NEGAL QIT SEQM5.1 hrs4.8 hrs27,643 lbMichael Roth